createdAt,value
2018-03-28T00:01:45.991Z,2.8
2018-03-28T00:04:45.941Z,2.7
2018-03-28T00:07:45.913Z,2.7
2018-03-28T00:10:46.089Z,2.6
2018-03-28T00:13:45.922Z,2.6
2018-03-28T00:16:45.903Z,2.6
2018-03-28T00:19:45.942Z,2.5
2018-03-28T00:22:45.904Z,2.5
2018-03-28T00:25:45.907Z,2.6
2018-03-28T00:28:45.934Z,2.5
2018-03-28T00:31:45.987Z,2.6
2018-03-28T00:34:45.987Z,2.6
2018-03-28T00:37:45.920Z,2.6
2018-03-28T00:40:45.928Z,2.7
2018-03-28T00:43:45.927Z,2.6
2018-03-28T00:46:45.949Z,2.5
2018-03-28T00:49:45.897Z,2.5
2018-03-28T00:52:45.916Z,2.4
2018-03-28T00:55:45.954Z,2.4
2018-03-28T00:58:45.888Z,2.4
2018-03-28T01:01:45.887Z,2.5
2018-03-28T01:04:45.904Z,2.5
2018-03-28T01:07:45.929Z,2.5
2018-03-28T01:10:45.888Z,2.5
2018-03-28T01:13:45.960Z,2.5
2018-03-28T01:16:45.905Z,2.4
2018-03-28T01:19:45.892Z,2.4
2018-03-28T01:22:45.909Z,2.4
2018-03-28T01:25:45.887Z,2.4
2018-03-28T01:28:45.930Z,2.4
2018-03-28T01:31:45.884Z,2.3
2018-03-28T01:34:45.885Z,2.4
2018-03-28T01:37:45.882Z,2.3
2018-03-28T01:40:45.916Z,2.3
2018-03-28T01:43:45.864Z,2.3
2018-03-28T01:46:45.885Z,2.3
2018-03-28T01:49:45.895Z,2.3
2018-03-28T01:52:46.030Z,2.4
2018-03-28T01:55:45.951Z,2.3
2018-03-28T01:58:45.901Z,2.3
2018-03-28T02:01:45.877Z,2.3
2018-03-28T02:04:45.882Z,2.3
2018-03-28T02:07:45.884Z,2.3
2018-03-28T02:10:45.974Z,2.3
2018-03-28T02:13:45.895Z,2.3
2018-03-28T02:16:45.880Z,2.3
2018-03-28T02:19:45.889Z,2.3
2018-03-28T02:22:45.902Z,2.1
2018-03-28T02:25:45.908Z,2.3
2018-03-28T02:28:45.858Z,2.2
2018-03-28T02:31:45.899Z,2.2
2018-03-28T02:34:45.869Z,2.3
2018-03-28T02:37:45.942Z,2.2
2018-03-28T02:40:45.902Z,2.1
2018-03-28T02:43:45.916Z,2.1
2018-03-28T02:46:46.048Z,2.1
2018-03-28T02:49:45.958Z,2.2
2018-03-28T02:52:45.878Z,2.1
2018-03-28T02:55:45.962Z,2
2018-03-28T02:58:45.884Z,2
2018-03-28T03:01:46.053Z,2.1
2018-03-28T03:04:45.933Z,2.1
2018-03-28T03:07:45.903Z,2
2018-03-28T03:10:45.846Z,2.1
2018-03-28T03:13:46.330Z,2.1
2018-03-28T03:16:45.905Z,2
2018-03-28T03:19:45.863Z,2.1
2018-03-28T03:22:45.858Z,2
2018-03-28T03:25:45.842Z,2
2018-03-28T03:28:45.855Z,1.9
2018-03-28T03:31:45.906Z,1.9
2018-03-28T03:34:45.893Z,2
2018-03-28T03:37:45.869Z,2
2018-03-28T03:40:45.841Z,1.9
2018-03-28T03:43:45.905Z,1.9
2018-03-28T03:46:45.839Z,1.9
2018-03-28T03:49:45.866Z,1.8
2018-03-28T03:52:46.026Z,1.9
2018-03-28T03:55:45.848Z,1.9
2018-03-28T03:58:46.471Z,1.8
2018-03-28T04:01:45.867Z,1.8
2018-03-28T04:04:45.848Z,1.8
2018-03-28T04:07:45.820Z,1.9
2018-03-28T04:10:45.820Z,1.9
2018-03-28T04:13:45.825Z,1.8
2018-03-28T04:16:45.875Z,1.8
2018-03-28T04:19:45.821Z,1.7
2018-03-28T04:22:45.834Z,1.7
2018-03-28T04:25:45.827Z,1.8
2018-03-28T04:28:45.920Z,1.7
2018-03-28T04:31:45.863Z,1.7
2018-03-28T04:34:45.850Z,1.7
2018-03-28T04:37:45.892Z,1.7
2018-03-28T04:40:45.857Z,1.6
2018-03-28T04:43:46.539Z,1.7
2018-03-28T04:46:45.828Z,1.7
2018-03-28T04:49:45.875Z,1.7
2018-03-28T04:52:45.856Z,1.7
2018-03-28T04:55:46.556Z,1.7
2018-03-28T04:58:45.848Z,1.7
2018-03-28T05:01:45.829Z,1.6
2018-03-28T05:04:45.813Z,1.6
2018-03-28T05:07:45.827Z,1.6
2018-03-28T05:10:45.810Z,1.6
2018-03-28T05:13:45.844Z,1.6
2018-03-28T05:16:45.809Z,1.6
2018-03-28T05:19:45.811Z,1.6
2018-03-28T05:22:46.529Z,1.5
2018-03-28T05:25:45.834Z,1.6
2018-03-28T05:28:45.869Z,1.5
2018-03-28T05:31:45.825Z,1.6
2018-03-28T05:34:45.869Z,1.6
2018-03-28T05:37:45.832Z,1.6
2018-03-28T05:40:46.084Z,1.6
2018-03-28T05:43:45.801Z,1.6
2018-03-28T05:46:45.810Z,1.6
2018-03-28T05:49:46.094Z,1.5
2018-03-28T05:52:45.800Z,1.5
2018-03-28T05:55:45.796Z,1.5
2018-03-28T05:58:45.798Z,1.5
2018-03-28T06:01:45.820Z,1.6
2018-03-28T06:04:45.789Z,1.6
2018-03-28T06:07:45.788Z,1.6
2018-03-28T06:10:45.820Z,4.3
2018-03-28T06:13:45.831Z,3.3
2018-03-28T06:16:45.837Z,2.7
2018-03-28T06:19:45.790Z,2.4
2018-03-28T06:22:45.853Z,2.3
2018-03-28T06:25:45.808Z,2.1
2018-03-28T06:28:45.805Z,2.7
2018-03-28T06:31:45.822Z,2.1
2018-03-28T06:34:45.818Z,1.9
2018-03-28T06:37:45.791Z,1.8
2018-03-28T06:40:45.787Z,1.7
2018-03-28T06:43:45.831Z,1.7
2018-03-28T06:46:46.011Z,2.3
2018-03-28T06:49:45.784Z,2
2018-03-28T06:52:45.778Z,1.9
2018-03-28T06:55:45.773Z,1.7
2018-03-28T06:58:45.792Z,1.8
2018-03-28T07:01:45.790Z,1.9
2018-03-28T07:04:45.865Z,2.2
2018-03-28T07:07:45.788Z,3.3
2018-03-28T07:10:45.877Z,2.7
2018-03-28T07:13:45.767Z,2.5
2018-03-28T07:16:45.779Z,2.1
2018-03-28T07:19:45.904Z,1.8
2018-03-28T07:22:45.838Z,2.1
2018-03-28T07:25:45.769Z,3.1
2018-03-28T07:28:45.775Z,2.9
2018-03-28T07:31:45.818Z,3.9
2018-03-28T07:34:45.782Z,3.7
2018-03-28T07:37:45.776Z,3.3
2018-03-28T07:40:45.751Z,3.6
2018-03-28T07:43:45.841Z,5.4
2018-03-28T07:46:45.761Z,5.6
2018-03-28T07:49:45.791Z,6.5
2018-03-28T07:52:45.784Z,5.9
2018-03-28T07:55:45.963Z,5.1
2018-03-28T07:58:45.782Z,4.6
2018-03-28T08:01:45.783Z,3.7
2018-03-28T08:04:45.802Z,3.5
2018-03-28T08:07:45.761Z,4.5
2018-03-28T08:10:45.769Z,4.6
2018-03-28T08:13:45.760Z,3.6
2018-03-28T08:16:45.773Z,2.9
2018-03-28T08:19:45.809Z,3.6
2018-03-28T08:22:45.759Z,3.4
2018-03-28T08:25:46.516Z,3
2018-03-28T08:28:45.764Z,2.8
2018-03-28T08:31:45.748Z,2.4
2018-03-28T08:34:45.761Z,2.8
2018-03-28T08:37:45.746Z,4.2
2018-03-28T08:40:45.828Z,6.2
2018-03-28T08:43:45.734Z,6.1
2018-03-28T08:46:45.767Z,5.1
2018-03-28T08:49:46.550Z,4.8
2018-03-28T08:52:45.748Z,5
2018-03-28T08:55:45.753Z,6.2
2018-03-28T08:58:45.775Z,6.8
2018-03-28T09:01:45.803Z,5.1
2018-03-28T09:04:46.693Z,4.2
2018-03-28T09:07:45.754Z,4.1
2018-03-28T09:10:45.834Z,4.3
2018-03-28T09:13:45.940Z,4.4
2018-03-28T09:16:45.778Z,6.9
2018-03-28T09:19:45.729Z,5.8
2018-03-28T09:22:45.760Z,5.2
2018-03-28T09:25:45.749Z,4.9
2018-03-28T09:28:45.784Z,4
2018-03-28T09:31:45.837Z,3.9
2018-03-28T09:34:45.745Z,4.1
2018-03-28T09:37:45.791Z,5.6
2018-03-28T09:40:46.023Z,4.3
2018-03-28T09:43:45.733Z,3.7
2018-03-28T09:46:45.775Z,4.4
2018-03-28T09:49:45.726Z,3.6
2018-03-28T09:52:45.741Z,3
2018-03-28T09:55:45.839Z,3.6
2018-03-28T09:58:45.806Z,4.4
2018-03-28T10:01:45.757Z,4.2
2018-03-28T10:04:45.726Z,3.3
2018-03-28T10:07:45.773Z,3
2018-03-28T10:10:45.804Z,2.9
2018-03-28T10:13:45.738Z,3.5
2018-03-28T10:16:45.747Z,2.7
2018-03-28T10:19:45.825Z,3.5
2018-03-28T10:22:45.740Z,2.9
2018-03-28T10:25:45.737Z,4
2018-03-28T10:28:45.964Z,3.8
2018-03-28T10:31:45.781Z,3.3
2018-03-28T10:34:45.747Z,3.6
2018-03-28T10:37:45.750Z,3.7
2018-03-28T10:40:45.756Z,4.1
2018-03-28T10:43:45.738Z,3.2
2018-03-28T10:46:45.700Z,5.1
2018-03-28T10:49:45.716Z,4.8
2018-03-28T10:52:45.753Z,4.1
2018-03-28T10:55:45.721Z,4.3
2018-03-28T10:58:45.739Z,4.8
2018-03-28T11:01:45.773Z,3.9
2018-03-28T11:04:46.055Z,3.7
2018-03-28T11:07:45.928Z,3.3
2018-03-28T11:10:45.789Z,4.5
2018-03-28T11:13:45.723Z,6.5
2018-03-28T11:16:45.712Z,5.2
2018-03-28T11:19:46.070Z,4.8
2018-03-28T11:22:45.758Z,5.7
2018-03-28T11:25:45.771Z,5.7
2018-03-28T11:28:45.748Z,4.3
2018-03-28T11:31:45.804Z,4
2018-03-28T11:34:45.747Z,3.7
2018-03-28T11:37:45.705Z,4.1
2018-03-28T11:40:45.722Z,3.4
2018-03-28T11:43:45.726Z,3.3
2018-03-28T11:46:45.730Z,3.8
2018-03-28T11:49:45.764Z,4
2018-03-28T11:52:45.752Z,3.4
2018-03-28T11:55:45.697Z,2.8
2018-03-28T11:58:45.704Z,3.5
2018-03-28T12:01:45.722Z,4.4
2018-03-28T12:04:46.035Z,4.5
2018-03-28T12:07:45.695Z,4.6
2018-03-28T12:10:45.715Z,4.8
2018-03-28T12:13:45.728Z,4.7
2018-03-28T12:16:45.727Z,4.4
2018-03-28T12:19:45.778Z,5.7
2018-03-28T12:22:45.716Z,4.4
2018-03-28T12:25:45.696Z,4.6
2018-03-28T12:28:45.743Z,5.8
2018-03-28T12:31:45.745Z,4.7
2018-03-28T12:34:45.723Z,5.7
2018-03-28T12:37:45.669Z,5.6
2018-03-28T12:40:45.709Z,6.3
2018-03-28T12:43:45.687Z,6.5
2018-03-28T12:46:45.727Z,5.8
2018-03-28T12:49:46.953Z,4.6
2018-03-28T12:52:45.706Z,4.9
2018-03-28T12:55:45.722Z,5.2
2018-03-28T12:58:45.734Z,4.5
2018-03-28T13:01:45.665Z,3.6
2018-03-28T13:04:45.712Z,3.4
2018-03-28T13:07:45.985Z,3.6
2018-03-28T13:10:45.859Z,3.7
2018-03-28T13:13:45.678Z,4.2
2018-03-28T13:16:45.685Z,5.2
2018-03-28T13:19:45.732Z,5.1
2018-03-28T13:22:45.676Z,5.2
2018-03-28T13:25:45.675Z,4.6
2018-03-28T13:28:45.665Z,4.3
2018-03-28T13:31:45.682Z,6.5
2018-03-28T13:34:45.700Z,5.6
2018-03-28T13:37:45.712Z,3.6
2018-03-28T13:40:45.665Z,3.3
2018-03-28T13:43:45.722Z,3.5
2018-03-28T13:46:45.847Z,3.2
2018-03-28T13:49:45.651Z,2.5
2018-03-28T13:52:45.652Z,2.6
2018-03-28T13:55:45.699Z,3.4
2018-03-28T13:58:45.774Z,3.3
2018-03-28T14:01:45.854Z,3.4
2018-03-28T14:04:45.706Z,2.6
2018-03-28T14:07:45.697Z,3.2
2018-03-28T14:10:45.647Z,2.4
2018-03-28T14:13:45.654Z,2.5
2018-03-28T14:16:45.644Z,2.5
2018-03-28T14:19:45.643Z,2.9
2018-03-28T14:22:45.677Z,2.7
2018-03-28T14:25:45.692Z,2
2018-03-28T14:28:45.649Z,2.4
2018-03-28T14:31:45.625Z,3.1
2018-03-28T14:34:45.770Z,2.8
2018-03-28T14:37:45.640Z,2.9
2018-03-28T14:40:45.671Z,2.6
2018-03-28T14:43:45.664Z,2.7
2018-03-28T14:46:45.670Z,5
2018-03-28T14:49:45.657Z,3.6
2018-03-28T14:52:45.674Z,3.9
2018-03-28T14:55:45.649Z,4.5
2018-03-28T14:58:45.628Z,5.6
2018-03-28T15:01:45.635Z,4.1
2018-03-28T15:04:45.665Z,3.4
2018-03-28T15:07:45.686Z,3.2
2018-03-28T15:10:45.662Z,2.7
2018-03-28T15:13:45.639Z,2.6
2018-03-28T15:16:45.689Z,2.3
2018-03-28T15:19:45.648Z,2.4
2018-03-28T15:22:45.614Z,2.7
2018-03-28T15:25:45.661Z,4.1
2018-03-28T15:28:45.612Z,3
2018-03-28T15:31:45.689Z,2.7
2018-03-28T15:34:45.636Z,2.6
2018-03-28T15:37:45.679Z,2.3
2018-03-28T15:40:45.623Z,2.5
2018-03-28T15:43:45.617Z,2.3
2018-03-28T15:46:45.664Z,2.5
2018-03-28T15:49:45.626Z,2
2018-03-28T15:52:45.630Z,2.5
2018-03-28T15:55:45.621Z,2.1
2018-03-28T15:58:45.735Z,3.1
2018-03-28T16:01:45.640Z,3.6
2018-03-28T16:04:45.622Z,2.8
2018-03-28T16:07:45.641Z,3
2018-03-28T16:10:45.608Z,4.2
2018-03-28T16:13:45.601Z,4.6
2018-03-28T16:16:45.597Z,3.7
2018-03-28T16:19:45.647Z,3.1
2018-03-28T16:22:45.624Z,2.5
2018-03-28T16:25:45.619Z,2.5
2018-03-28T16:28:45.641Z,3
2018-03-28T16:31:45.714Z,3.3
2018-03-28T16:34:45.669Z,2.6
2018-03-28T16:37:45.649Z,2.6
2018-03-28T16:40:45.628Z,6.4
2018-03-28T16:43:45.632Z,4.3
2018-03-28T16:46:45.596Z,4
2018-03-28T16:49:45.612Z,5.5
2018-03-28T16:52:45.613Z,8.3
2018-03-28T16:55:45.601Z,8.4
2018-03-28T16:58:45.635Z,8.3
2018-03-28T17:01:46.256Z,8.2
2018-03-28T17:04:45.633Z,7.2
2018-03-28T17:07:46.476Z,7.6
2018-03-28T17:10:45.671Z,5.9
2018-03-28T17:13:45.598Z,6.4
2018-03-28T17:16:45.635Z,5.3
2018-03-28T17:19:45.594Z,4.8
2018-03-28T17:22:45.620Z,7
2018-03-28T17:25:45.888Z,5.8
2018-03-28T17:28:45.605Z,6.5
2018-03-28T17:31:45.608Z,6.4
2018-03-28T17:34:45.596Z,6.7
2018-03-28T17:37:45.601Z,7.5
2018-03-28T17:40:45.650Z,7.2
2018-03-28T17:43:45.766Z,6.2
2018-03-28T17:46:45.601Z,5.7
2018-03-28T17:49:45.580Z,7.3
2018-03-28T17:52:45.595Z,6.7
2018-03-28T17:55:45.603Z,5.8
2018-03-28T17:58:45.581Z,5.9
2018-03-28T18:01:45.889Z,4.7
2018-03-28T18:04:45.582Z,5.5
2018-03-28T18:07:45.574Z,5.3
2018-03-28T18:10:45.584Z,5.1
2018-03-28T18:13:45.560Z,5.6
2018-03-28T18:16:45.595Z,4.9
2018-03-28T18:19:45.604Z,8
2018-03-28T18:22:45.603Z,7.6
2018-03-28T18:25:45.646Z,7
2018-03-28T18:28:45.577Z,6.5
2018-03-28T18:31:45.567Z,7.5
2018-03-28T18:34:45.583Z,6.4
2018-03-28T18:37:45.569Z,4.7
2018-03-28T18:40:45.582Z,3.5
2018-03-28T18:43:45.763Z,4.2
2018-03-28T18:46:45.600Z,4
2018-03-28T18:49:45.577Z,4.3
2018-03-28T18:52:45.568Z,3.7
2018-03-28T18:55:45.556Z,3.1
2018-03-28T18:58:45.586Z,3.5
2018-03-28T19:01:46.130Z,4
2018-03-28T19:04:45.593Z,6.5
2018-03-28T19:07:45.600Z,6.3
2018-03-28T19:10:45.595Z,5.6
2018-03-28T19:13:45.635Z,5.2
2018-03-28T19:16:45.585Z,4
2018-03-28T19:19:45.607Z,4.8
2018-03-28T19:22:45.550Z,3.9
2018-03-28T19:25:45.626Z,3.6
2018-03-28T19:28:45.591Z,3.3
2018-03-28T19:31:45.617Z,2.8
2018-03-28T19:34:45.564Z,2.7
2018-03-28T19:37:45.559Z,3
2018-03-28T19:40:45.648Z,3.8
2018-03-28T19:43:45.548Z,3.3
2018-03-28T19:46:45.534Z,3.3
2018-03-28T19:49:45.550Z,3.4
2018-03-28T19:52:45.579Z,3.1
2018-03-28T19:55:45.568Z,3
2018-03-28T19:58:45.529Z,2.9
2018-03-28T20:01:45.644Z,2.5
2018-03-28T20:04:45.595Z,2.1
2018-03-28T20:07:45.547Z,2.5
2018-03-28T20:10:45.847Z,2.8
2018-03-28T20:13:45.545Z,2.7
2018-03-28T20:16:45.528Z,2.3
2018-03-28T20:19:45.598Z,2.6
2018-03-28T20:22:45.524Z,2.5
2018-03-28T20:25:45.571Z,2.2
2018-03-28T20:28:45.572Z,2.7
2018-03-28T20:31:45.516Z,2.8
2018-03-28T20:34:45.522Z,3
2018-03-28T20:37:45.538Z,2.4
2018-03-28T20:40:45.537Z,2.7
2018-03-28T20:43:45.592Z,2.3
2018-03-28T20:46:45.559Z,2.5
2018-03-28T20:49:45.525Z,2.1
2018-03-28T20:52:45.509Z,2.3
2018-03-28T20:55:45.612Z,2.2
2018-03-28T20:58:45.562Z,2.1
2018-03-28T21:01:45.542Z,2.1
2018-03-28T21:04:45.542Z,2
2018-03-28T21:07:45.530Z,2.1
2018-03-28T21:10:45.530Z,2.1
2018-03-28T21:13:45.519Z,2.5
2018-03-28T21:16:45.542Z,2
2018-03-28T21:19:45.559Z,2
2018-03-28T21:22:45.985Z,1.9
2018-03-28T21:25:45.515Z,2
2018-03-28T21:28:45.533Z,1.9
2018-03-28T21:31:45.520Z,2.1
2018-03-28T21:34:45.518Z,2.1
2018-03-28T21:37:45.549Z,2.1
2018-03-28T21:40:45.500Z,2
2018-03-28T21:43:45.543Z,1.6
2018-03-28T21:46:45.579Z,1.6
2018-03-28T21:49:45.766Z,1.5
2018-03-28T21:52:45.506Z,2.1
2018-03-28T21:55:45.552Z,1.8
2018-03-28T21:58:45.558Z,2.1
2018-03-28T22:01:45.658Z,2.2
2018-03-28T22:04:45.529Z,1.9
2018-03-28T22:07:45.499Z,1.6
2018-03-28T22:10:45.501Z,1.4
2018-03-28T22:13:45.565Z,1.3
2018-03-28T22:16:46.057Z,1.3
2018-03-28T22:19:45.497Z,1.4
2018-03-28T22:22:45.514Z,1.8
2018-03-28T22:25:45.540Z,1.6
2018-03-28T22:28:45.472Z,1.4
2018-03-28T22:31:45.497Z,1.3
2018-03-28T22:34:45.510Z,1.6
2018-03-28T22:37:45.496Z,1.4
2018-03-28T22:40:45.481Z,1.5
2018-03-28T22:43:45.515Z,1.4
2018-03-28T22:46:45.495Z,1.4
2018-03-28T22:49:45.515Z,1.3
2018-03-28T22:52:45.517Z,1.2
2018-03-28T22:55:45.492Z,1.2
2018-03-28T22:58:45.485Z,1.1
2018-03-28T23:01:45.494Z,1.2
2018-03-28T23:04:45.569Z,1.2
2018-03-28T23:07:45.524Z,1.3
2018-03-28T23:10:45.527Z,1.6
2018-03-28T23:13:45.476Z,1.4
2018-03-28T23:16:45.545Z,1.4
2018-03-28T23:19:45.576Z,1.3
2018-03-28T23:22:45.476Z,1.4
2018-03-28T23:25:45.485Z,1.3
2018-03-28T23:28:45.476Z,1.3
2018-03-28T23:31:45.486Z,1.3
2018-03-28T23:34:45.529Z,1.3
2018-03-28T23:37:45.521Z,1.3
2018-03-28T23:40:45.477Z,1.3
2018-03-28T23:43:45.504Z,1.2
2018-03-28T23:46:45.473Z,1.3
2018-03-28T23:49:45.481Z,1.2
2018-03-28T23:52:45.501Z,1.1
2018-03-28T23:55:45.472Z,1
2018-03-28T23:58:45.513Z,1.2
